Time;durP1;ratioP1;P1;durP2;ratioP2;P2;SDS_P1;SDS_P2;PMS_P1;PMS_P2;Temp;Humidity;BMP_temperature;BMP_pressure;BME280_temperature;BME280_humidity;BME280_pressure;Samples;Min_cycle;Max_cycle;Signal;HPM_P1;HPM_P2
2023/01/03 00:01:38;;;;;;;31.15;28.58;;;;;;;;;;5080162;28;20460;-81
2023/01/03 00:04:05;;;;;;;33.30;30.40;;;;;;;;;;5079863;28;20260;-79
2023/01/03 00:06:34;;;;;;;33.07;29.97;;;;;;;;;;5078977;28;20988;-78
2023/01/03 00:09:02;;;;;;;33.90;30.97;;;;;;;;;;5078880;28;20485;-79
2023/01/03 00:14:22;;;;;;;38.00;34.80;;;;;;;;;;5079340;28;20449;-80
2023/01/03 00:16:50;;;;;;;35.20;32.30;;;;;;;;;;5079173;28;20803;-79
2023/01/03 00:19:17;;;;;;;35.77;32.73;;;;;;;;;;5078778;28;20530;-78
2023/01/03 00:21:44;;;;;;;36.07;33.07;;;;;;;;;;5079212;28;20463;-80
2023/01/03 00:24:12;;;;;;;37.40;34.27;;;;;;;;;;5079110;28;20832;-79
2023/01/03 00:26:40;;;;;;;38.97;35.20;;;;;;;;;;5079079;28;20452;-79
2023/01/03 00:29:07;;;;;;;38.53;35.17;;;;;;;;;;5079170;28;20435;-80
2023/01/03 00:31:34;;;;;;;31.77;29.43;;;;;;;;;;5079517;28;20441;-80
2023/01/03 00:34:02;;;;;;;38.80;35.27;;;;;;;;;;5078292;28;20445;-80
2023/01/03 00:36:28;;;;;;;37.77;34.07;;;;;;;;;;5077752;28;20509;-81
2023/01/03 00:38:55;;;;;;;29.87;27.57;;;;;;;;;;5078327;28;20972;-81
2023/01/03 00:41:23;;;;;;;35.40;32.30;;;;;;;;;;5079074;28;20504;-79
2023/01/03 00:43:51;;;;;;;36.60;33.50;;;;;;;;;;5078389;28;20205;-80
2023/01/03 00:46:19;;;;;;;37.17;33.90;;;;;;;;;;5078841;28;20459;-79
2023/01/03 00:48:46;;;;;;;38.42;34.97;;;;;;;;;;5078015;28;20416;-80
2023/01/03 00:51:15;;;;;;;38.33;34.97;;;;;;;;;;5078934;28;20210;-79
2023/01/03 00:53:43;;;;;;;36.80;33.60;;;;;;;;;;5077580;28;20269;-80
2023/01/03 00:56:11;;;;;;;37.50;34.00;;;;;;;;;;5079017;28;20446;-79
2023/01/03 00:58:38;;;;;;;38.95;35.35;;;;;;;;;;5078276;28;20469;-79
2023/01/03 01:01:07;;;;;;;38.90;35.27;;;;;;;;;;5078486;28;20207;-79
2023/01/03 01:03:34;;;;;;;40.45;36.78;;;;;;;;;;5077855;28;20465;-80
2023/01/03 01:06:01;;;;;;;37.37;34.17;;;;;;;;;;5077853;28;20260;-79
2023/01/03 01:08:28;;;;;;;39.00;35.70;;;;;;;;;;5078963;28;20779;-79
2023/01/03 01:11:04;;;;;;;41.40;37.30;;;;;;;;;;5078361;28;20517;-79
2023/01/03 01:13:31;;;;;;;38.47;35.03;;;;;;;;;;5077260;28;20411;-80
2023/01/03 01:16:01;;;;;;;41.67;37.83;;;;;;;;;;5077703;28;20541;-80
2023/01/03 01:18:29;;;;;;;40.00;36.00;;;;;;;;;;5078271;28;20423;-79
2023/01/03 01:20:56;;;;;;;39.03;35.08;;;;;;;;;;5078201;28;21041;-79
2023/01/03 01:23:23;;;;;;;36.37;33.10;;;;;;;;;;5078133;28;20624;-79
2023/01/03 01:25:50;;;;;;;40.60;36.90;;;;;;;;;;5078054;28;20500;-79
2023/01/03 01:28:17;;;;;;;37.10;33.60;;;;;;;;;;5077866;28;20495;-80
2023/01/03 01:30:44;;;;;;;39.47;35.97;;;;;;;;;;5077411;28;20448;-79
2023/01/03 01:33:11;;;;;;;38.03;34.57;;;;;;;;;;5077600;28;20424;-79
2023/01/03 01:35:39;;;;;;;35.10;31.70;;;;;;;;;;5078252;28;20453;-79
2023/01/03 01:38:08;;;;;;;34.33;31.13;;;;;;;;;;5085132;28;20423;-80
2023/01/03 01:40:35;;;;;;;36.47;32.70;;;;;;;;;;5081755;28;20453;-80
2023/01/03 01:45:53;;;;;;;38.23;33.40;;;;;;;;;;5079905;28;20441;-81
2023/01/03 01:48:20;;;;;;;38.20;34.70;;;;;;;;;;5079908;28;20449;-80
2023/01/03 01:50:50;;;;;;;38.80;35.23;;;;;;;;;;5076692;28;20422;-80
2023/01/03 01:53:18;;;;;;;36.90;33.30;;;;;;;;;;5077661;28;20423;-80
2023/01/03 01:55:47;;;;;;;38.17;34.47;;;;;;;;;;5079205;28;20941;-80
2023/01/03 01:58:14;;;;;;;38.80;35.23;;;;;;;;;;5079204;28;20503;-80
2023/01/03 02:00:43;;;;;;;37.00;33.47;;;;;;;;;;5079332;28;20422;-80
2023/01/03 02:03:10;;;;;;;37.77;34.27;;;;;;;;;;5079034;28;20511;-80
2023/01/03 02:05:39;;;;;;;39.83;36.43;;;;;;;;;;5081467;28;20860;-81
2023/01/03 02:08:08;;;;;;;37.77;34.23;;;;;;;;;;5080414;28;20521;-83
2023/01/03 02:10:42;;;;;;;39.10;35.70;;;;;;;;;;5080824;28;20438;-82
2023/01/03 02:13:13;;;;;;;37.53;33.73;;;;;;;;;;5078231;28;20461;-81
2023/01/03 02:15:47;;;;;;;39.50;35.90;;;;;;;;;;5078972;28;20416;-81
2023/01/03 02:18:20;;;;;;;37.60;34.20;;;;;;;;;;5078562;28;20406;-82
2023/01/03 02:21:03;;;;;;;38.27;34.77;;;;;;;;;;5078583;28;20801;-80
2023/01/03 02:23:51;;;;;;;36.95;33.55;;;;;;;;;;5074920;28;20528;-82
2023/01/03 02:26:31;;;;;;;36.43;32.67;;;;;;;;;;5075848;28;20279;-81
2023/01/03 02:29:07;;;;;;;36.60;33.10;;;;;;;;;;5076840;28;20437;-82
2023/01/03 02:31:39;;;;;;;36.17;32.87;;;;;;;;;;5081669;28;20436;-83
2023/01/03 02:34:14;;;;;;;35.00;32.00;;;;;;;;;;5085819;28;20471;-81
2023/01/03 02:36:47;;;;;;;39.20;33.33;;;;;;;;;;5076141;28;20480;-82
2023/01/03 02:39:19;;;;;;;38.00;34.50;;;;;;;;;;5078316;28;20520;-82
2023/01/03 02:41:47;;;;;;;37.97;34.17;;;;;;;;;;5076772;28;20438;-82
2023/01/03 02:44:17;;;;;;;36.20;33.10;;;;;;;;;;5074554;28;20473;-82
2023/01/03 02:46:47;;;;;;;36.50;33.10;;;;;;;;;;5076130;28;20976;-82
2023/01/03 02:49:19;;;;;;;32.57;29.83;;;;;;;;;;5075569;28;20982;-81
2023/01/03 02:51:47;;;;;;;38.40;34.83;;;;;;;;;;5075790;28;20475;-82
2023/01/03 02:54:17;;;;;;;30.43;27.80;;;;;;;;;;5074419;28;20857;-81
2023/01/03 02:56:45;;;;;;;26.17;24.37;;;;;;;;;;5075622;28;20509;-81
2023/01/03 02:59:15;;;;;;;32.67;29.90;;;;;;;;;;5078733;28;20419;-80
2023/01/03 03:01:43;;;;;;;30.40;27.93;;;;;;;;;;5080118;28;20460;-80
2023/01/03 03:04:12;;;;;;;28.50;26.40;;;;;;;;;;5078726;28;20481;-80
2023/01/03 03:06:42;;;;;;;31.90;29.13;;;;;;;;;;5079228;28;20472;-79
2023/01/03 03:09:09;;;;;;;33.20;30.47;;;;;;;;;;5079058;28;20412;-78
2023/01/03 03:14:24;;;;;;;33.30;30.40;;;;;;;;;;5096481;28;20512;-78
2023/01/03 03:16:52;;;;;;;35.90;32.97;;;;;;;;;;5096082;28;20457;-78
2023/01/03 03:25:12;;;;;;;35.73;32.53;;;;;;;;;;5100453;28;20408;-79
2023/01/03 03:30:27;;;;;;;36.93;33.57;;;;;;;;;;5101843;28;20831;-78
2023/01/03 03:32:56;;;;;;;37.87;34.27;;;;;;;;;;5100352;28;20549;-79
2023/01/03 03:35:28;;;;;;;39.63;36.00;;;;;;;;;;5100611;28;20883;-79
2023/01/03 03:37:57;;;;;;;39.40;36.00;;;;;;;;;;5100967;28;20512;-78
2023/01/03 03:46:10;;;;;;;38.93;34.77;;;;;;;;;;5100685;28;20444;-78
2023/01/03 03:51:22;;;;;;;38.97;35.33;;;;;;;;;;5099599;28;20407;-78
2023/01/03 03:53:50;;;;;;;40.63;36.73;;;;;;;;;;5100008;28;20982;-78
2023/01/03 03:56:19;;;;;;;42.43;38.57;;;;;;;;;;5099475;28;20540;-78
2023/01/03 03:58:48;;;;;;;41.00;36.90;;;;;;;;;;5099685;28;20447;-78
2023/01/03 04:01:17;;;;;;;42.03;37.73;;;;;;;;;;5100818;28;20552;-79
2023/01/03 04:03:44;;;;;;;41.10;37.10;;;;;;;;;;5099816;28;20475;-79
2023/01/03 04:06:14;;;;;;;44.27;40.00;;;;;;;;;;5099361;28;20528;-78
2023/01/03 04:08:42;;;;;;;42.37;38.13;;;;;;;;;;5099425;28;20497;-80
2023/01/03 04:11:09;;;;;;;43.47;39.17;;;;;;;;;;5099511;28;20464;-79
2023/01/03 04:13:37;;;;;;;42.50;38.20;;;;;;;;;;5099402;28;20557;-78
2023/01/03 04:16:05;;;;;;;43.93;39.33;;;;;;;;;;5099436;28;21041;-78
2023/01/03 04:18:32;;;;;;;43.67;39.47;;;;;;;;;;5099070;28;20479;-79
2023/01/03 04:20:59;;;;;;;44.07;39.17;;;;;;;;;;5098631;28;20512;-79
2023/01/03 04:23:26;;;;;;;44.37;39.87;;;;;;;;;;5097996;28;20466;-78
2023/01/03 04:25:54;;;;;;;44.43;40.23;;;;;;;;;;5100392;28;20449;-79
2023/01/03 04:28:21;;;;;;;44.87;40.07;;;;;;;;;;5100294;28;20519;-78
2023/01/03 04:30:48;;;;;;;45.38;40.60;;;;;;;;;;5099804;28;20460;-78
2023/01/03 04:33:15;;;;;;;44.40;39.57;;;;;;;;;;5099123;28;20260;-78
2023/01/03 04:35:42;;;;;;;43.57;39.20;;;;;;;;;;5100796;28;20448;-79
2023/01/03 04:38:09;;;;;;;51.58;39.72;;;;;;;;;;5101857;28;20426;-79
2023/01/03 04:40:38;;;;;;;43.70;39.37;;;;;;;;;;5101026;28;20200;-79
2023/01/03 04:45:51;;;;;;;41.22;37.03;;;;;;;;;;5101262;28;20224;-80
2023/01/03 04:48:18;;;;;;;42.67;38.17;;;;;;;;;;5101061;28;20673;-80
2023/01/03 04:50:51;;;;;;;38.92;35.38;;;;;;;;;;5100701;28;20451;-79
2023/01/03 04:53:18;;;;;;;39.55;35.70;;;;;;;;;;5100093;28;20186;-78
2023/01/03 04:55:46;;;;;;;40.07;36.10;;;;;;;;;;5097547;28;20262;-79
2023/01/03 04:58:15;;;;;;;39.87;36.17;;;;;;;;;;5098562;28;20430;-79
2023/01/03 05:00:42;;;;;;;39.23;35.50;;;;;;;;;;5100377;28;20414;-79
2023/01/03 05:03:09;;;;;;;42.77;38.40;;;;;;;;;;5100566;28;20458;-80
2023/01/03 05:05:38;;;;;;;37.43;33.57;;;;;;;;;;5100893;28;20426;-78
2023/01/03 05:08:05;;;;;;;40.47;36.57;;;;;;;;;;5100929;28;20441;-79
2023/01/03 05:10:32;;;;;;;38.40;34.73;;;;;;;;;;5101578;28;20820;-80
2023/01/03 05:13:02;;;;;;;37.10;33.40;;;;;;;;;;5100264;28;20496;-81
2023/01/03 05:15:31;;;;;;;37.70;34.13;;;;;;;;;;5101375;28;20700;-80
2023/01/03 05:17:58;;;;;;;38.47;34.47;;;;;;;;;;5101028;28;20418;-80
2023/01/03 05:25:57;;;;;;;37.77;34.07;;;;;;;;;;5099935;28;20440;-80
2023/01/03 05:28:24;;;;;;;39.72;35.85;;;;;;;;;;5099168;28;20427;-80
2023/01/03 05:30:52;;;;;;;37.33;33.47;;;;;;;;;;5099234;28;20228;-79
2023/01/03 05:33:19;;;;;;;37.85;34.05;;;;;;;;;;5099762;28;20426;-81
2023/01/03 05:35:47;;;;;;;40.20;35.97;;;;;;;;;;5100399;28;20205;-79
2023/01/03 05:38:14;;;;;;;36.50;32.73;;;;;;;;;;5100165;28;20204;-79
2023/01/03 05:40:41;;;;;;;34.53;31.43;;;;;;;;;;5097501;28;20464;-80
2023/01/03 05:43:09;;;;;;;37.80;34.20;;;;;;;;;;5094156;28;20454;-80
2023/01/03 05:45:36;;;;;;;37.10;33.50;;;;;;;;;;5094846;28;20455;-79
2023/01/03 05:48:04;;;;;;;36.63;32.80;;;;;;;;;;5095325;28;20856;-78
2023/01/03 05:50:31;;;;;;;36.73;33.33;;;;;;;;;;5094521;28;20472;-78
2023/01/03 05:52:58;;;;;;;37.67;33.60;;;;;;;;;;5093885;28;20443;-78
2023/01/03 05:55:25;;;;;;;30.27;27.57;;;;;;;;;;5094818;28;20459;-78
2023/01/03 05:57:53;;;;;;;33.45;30.55;;;;;;;;;;5094980;28;20480;-79
2023/01/03 06:00:20;;;;;;;35.20;31.70;;;;;;;;;;5094357;28;20205;-79
2023/01/03 06:02:47;;;;;;;33.37;30.17;;;;;;;;;;5094472;28;20263;-78
2023/01/03 06:05:15;;;;;;;32.33;29.23;;;;;;;;;;5094114;28;20783;-79
2023/01/03 06:07:43;;;;;;;32.40;29.40;;;;;;;;;;5094561;28;20286;-79
2023/01/03 06:10:11;;;;;;;33.45;29.95;;;;;;;;;;5093868;28;21345;-80
2023/01/03 06:12:38;;;;;;;29.70;27.00;;;;;;;;;;5094685;28;20208;-78
2023/01/03 06:15:05;;;;;;;30.87;27.80;;;;;;;;;;5093841;28;20468;-78
2023/01/03 06:20:19;;;;;;;28.58;26.08;;;;;;;;;;5093823;28;20189;-80
2023/01/03 06:22:46;;;;;;;31.20;28.50;;;;;;;;;;5093979;28;20251;-78
2023/01/03 06:25:13;;;;;;;29.52;26.90;;;;;;;;;;5094033;28;20261;-78
2023/01/03 06:27:40;;;;;;;29.60;27.10;;;;;;;;;;5094188;28;20291;-78
2023/01/03 06:30:07;;;;;;;31.87;28.87;;;;;;;;;;5094400;28;20426;-78
2023/01/03 06:32:34;;;;;;;33.22;30.02;;;;;;;;;;5093703;28;20532;-79
2023/01/03 06:35:01;;;;;;;32.03;29.23;;;;;;;;;;5096757;28;20201;-80
2023/01/03 06:37:30;;;;;;;33.30;30.30;;;;;;;;;;5099025;28;20287;-79
2023/01/03 06:39:57;;;;;;;31.80;29.10;;;;;;;;;;5099042;28;20509;-78
2023/01/03 06:42:39;;;;;;;32.72;29.25;;;;;;;;;;5099169;28;20213;-79
2023/01/03 06:53:24;;;;;;;32.73;29.40;;;;;;;;;;5097579;28;20181;-79
2023/01/03 06:55:51;;;;;;;34.87;31.83;;;;;;;;;;5098233;28;20452;-78
2023/01/03 06:58:18;;;;;;;33.17;30.00;;;;;;;;;;5098609;28;20443;-78
2023/01/03 07:00:46;;;;;;;33.07;29.90;;;;;;;;;;5098508;28;20467;-78
2023/01/03 07:03:13;;;;;;;34.53;31.17;;;;;;;;;;5096881;28;20491;-79
2023/01/03 07:05:40;;;;;;;33.63;30.33;;;;;;;;;;5098101;28;20493;-78
2023/01/03 07:08:07;;;;;;;33.70;30.17;;;;;;;;;;5098665;28;20473;-78
2023/01/03 07:10:36;;;;;;;32.97;29.70;;;;;;;;;;5097776;28;20482;-78
2023/01/03 07:15:47;;;;;;;35.13;29.63;;;;;;;;;;5101139;28;20822;-80
2023/01/03 07:18:14;;;;;;;34.10;31.27;;;;;;;;;;5099803;28;20423;-79
2023/01/03 07:20:42;;;;;;;32.95;29.77;;;;;;;;;;5099287;28;20534;-79
2023/01/03 07:23:09;;;;;;;34.53;31.43;;;;;;;;;;5098513;28;20731;-78
2023/01/03 07:25:40;;;;;;;38.03;34.50;;;;;;;;;;5099040;28;20509;-79
2023/01/03 07:28:08;;;;;;;36.80;33.30;;;;;;;;;;5099684;28;20497;-79
2023/01/03 07:30:39;;;;;;;34.90;31.50;;;;;;;;;;5100385;28;20437;-79
2023/01/03 07:33:06;;;;;;;35.05;31.40;;;;;;;;;;5100261;28;20460;-81
2023/01/03 07:35:33;;;;;;;34.87;31.17;;;;;;;;;;5099205;28;20255;-80
2023/01/03 07:38:00;;;;;;;35.50;31.97;;;;;;;;;;5098566;28;20440;-80
2023/01/03 07:40:27;;;;;;;34.25;31.02;;;;;;;;;;5100081;28;20447;-80
2023/01/03 07:45:41;;;;;;;37.10;33.35;;;;;;;;;;5098761;28;20400;-80
2023/01/03 07:48:09;;;;;;;36.47;32.55;;;;;;;;;;5098973;28;20209;-80
2023/01/03 07:50:36;;;;;;;33.63;30.38;;;;;;;;;;5097355;28;20582;-79
2023/01/03 07:53:03;;;;;;;34.33;31.02;;;;;;;;;;5096280;28;20268;-80
2023/01/03 07:55:30;;;;;;;33.65;30.80;;;;;;;;;;5095086;28;20263;-80
2023/01/03 07:57:58;;;;;;;34.05;30.95;;;;;;;;;;5096923;28;20206;-78
2023/01/03 08:00:25;;;;;;;32.30;29.27;;;;;;;;;;5096987;28;20210;-79
2023/01/03 08:02:54;;;;;;;33.05;30.10;;;;;;;;;;5096687;28;20440;-79
2023/01/03 08:05:21;;;;;;;33.65;30.85;;;;;;;;;;5096950;28;20321;-79
2023/01/03 08:07:48;;;;;;;33.97;30.80;;;;;;;;;;5097082;28;20250;-79
2023/01/03 08:13:19;;;;;;;33.90;30.80;;;;;;;;;;5096902;28;20181;-80
2023/01/03 08:15:50;;;;;;;33.28;30.27;;;;;;;;;;5097227;28;20205;-79
2023/01/03 08:18:19;;;;;;;34.17;30.87;;;;;;;;;;5097050;28;20262;-79
2023/01/03 08:20:46;;;;;;;33.90;30.90;;;;;;;;;;5096683;28;20441;-78
2023/01/03 08:23:13;;;;;;;33.93;30.87;;;;;;;;;;5096116;28;20485;-80
2023/01/03 08:25:40;;;;;;;38.17;32.83;;;;;;;;;;5096880;28;20483;-79
2023/01/03 08:28:10;;;;;;;32.83;29.83;;;;;;;;;;5096334;28;20445;-79
2023/01/03 08:30:38;;;;;;;33.63;30.73;;;;;;;;;;5096608;28;20209;-79
2023/01/03 08:33:07;;;;;;;33.57;30.33;;;;;;;;;;5096404;28;20213;-78
2023/01/03 08:35:35;;;;;;;34.50;31.20;;;;;;;;;;5096669;28;20476;-79
2023/01/03 08:38:04;;;;;;;34.03;31.02;;;;;;;;;;5096883;28;20202;-82
2023/01/03 08:40:32;;;;;;;33.30;30.30;;;;;;;;;;5096480;28;20579;-79
2023/01/03 08:42:59;;;;;;;32.53;29.63;;;;;;;;;;5096660;28;20557;-80
2023/01/03 08:45:28;;;;;;;33.03;29.83;;;;;;;;;;5097034;28;20275;-79
2023/01/03 08:47:57;;;;;;;32.63;29.60;;;;;;;;;;5096887;28;21174;-80
2023/01/03 08:50:25;;;;;;;34.45;31.00;;;;;;;;;;5096538;28;20859;-79
2023/01/03 08:52:52;;;;;;;31.63;29.02;;;;;;;;;;5097104;28;20656;-80
2023/01/03 08:55:19;;;;;;;33.33;30.20;;;;;;;;;;5096105;28;20202;-79
2023/01/03 08:57:46;;;;;;;32.92;30.13;;;;;;;;;;5095790;28;20256;-79
2023/01/03 09:00:14;;;;;;;31.85;29.08;;;;;;;;;;5096914;28;20711;-79
2023/01/03 09:02:42;;;;;;;34.70;31.60;;;;;;;;;;5096784;28;20247;-79
2023/01/03 09:05:09;;;;;;;35.40;32.03;;;;;;;;;;5096571;28;20459;-79
2023/01/03 09:07:36;;;;;;;32.13;29.15;;;;;;;;;;5096244;28;20225;-79
2023/01/03 09:10:03;;;;;;;31.90;29.10;;;;;;;;;;5096864;28;20202;-79
2023/01/03 09:12:30;;;;;;;32.00;28.92;;;;;;;;;;5096888;28;20620;-79
2023/01/03 09:14:57;;;;;;;33.70;30.70;;;;;;;;;;5095777;28;20267;-79
2023/01/03 09:17:24;;;;;;;33.58;29.92;;;;;;;;;;5096018;28;20281;-79
2023/01/03 09:19:52;;;;;;;30.67;28.08;;;;;;;;;;5096378;28;20215;-80
2023/01/03 09:22:19;;;;;;;31.53;28.93;;;;;;;;;;5097018;28;20218;-80
2023/01/03 09:24:46;;;;;;;31.10;28.53;;;;;;;;;;5095733;28;20549;-80
2023/01/03 09:27:13;;;;;;;29.52;27.00;;;;;;;;;;5097016;28;20479;-83
2023/01/03 09:29:40;;;;;;;30.43;28.23;;;;;;;;;;5098379;28;20204;-81
2023/01/03 09:32:07;;;;;;;30.88;28.38;;;;;;;;;;5094886;28;20477;-78
2023/01/03 09:34:35;;;;;;;29.40;27.20;;;;;;;;;;5095836;28;20236;-79
2023/01/03 09:37:04;;;;;;;30.45;28.05;;;;;;;;;;5096235;28;20544;-79
2023/01/03 09:39:31;;;;;;;29.77;27.52;;;;;;;;;;5096088;28;20201;-80
2023/01/03 09:44:59;;;;;;;29.80;27.60;;;;;;;;;;5033632;28;20467;-79
2023/01/03 09:47:26;;;;;;;29.93;27.43;;;;;;;;;;5033342;28;20493;-80
2023/01/03 09:49:56;;;;;;;29.27;26.90;;;;;;;;;;5061789;28;20426;-79
2023/01/03 10:03:44;;;;;;;28.80;26.63;;;;;;;;;;5095534;28;20441;-80
2023/01/03 10:06:13;;;;;;;29.40;27.10;;;;;;;;;;5096536;28;20495;-80
2023/01/03 10:08:47;;;;;;;29.70;27.23;;;;;;;;;;5096080;28;20458;-80
2023/01/03 10:11:19;;;;;;;28.83;26.60;;;;;;;;;;5096096;28;20438;-80
2023/01/03 10:13:54;;;;;;;29.10;26.80;;;;;;;;;;5095481;28;20428;-81
2023/01/03 10:16:27;;;;;;;28.55;26.15;;;;;;;;;;5094259;28;20471;-80
2023/01/03 10:19:01;;;;;;;28.08;25.75;;;;;;;;;;5095668;28;20190;-80
2023/01/03 10:21:32;;;;;;;26.63;24.47;;;;;;;;;;5095264;28;20217;-79
2023/01/03 10:24:00;;;;;;;26.83;24.87;;;;;;;;;;5095435;28;20442;-80
2023/01/03 10:26:29;;;;;;;26.70;24.70;;;;;;;;;;5096301;28;20529;-81
2023/01/03 10:28:56;;;;;;;26.47;24.43;;;;;;;;;;5095736;28;20456;-79
2023/01/03 10:31:28;;;;;;;27.33;25.23;;;;;;;;;;5094805;28;20479;-80
2023/01/03 10:33:55;;;;;;;27.53;25.20;;;;;;;;;;5095699;28;20490;-80
2023/01/03 10:36:23;;;;;;;27.50;25.17;;;;;;;;;;5095619;28;20468;-80
2023/01/03 10:39:02;;;;;;;25.58;23.77;;;;;;;;;;5095889;28;20471;-80
2023/01/03 10:41:32;;;;;;;25.25;23.45;;;;;;;;;;5094840;28;20221;-80
2023/01/03 10:44:00;;;;;;;26.30;24.23;;;;;;;;;;5095123;28;20185;-80
2023/01/03 10:46:28;;;;;;;24.17;22.52;;;;;;;;;;5095317;28;20959;-80
2023/01/03 10:48:57;;;;;;;23.55;21.85;;;;;;;;;;5097155;28;20205;-79
2023/01/03 10:51:27;;;;;;;24.20;22.30;;;;;;;;;;5095649;28;20665;-80
2023/01/03 10:53:57;;;;;;;24.73;22.83;;;;;;;;;;5095017;28;20463;-79
2023/01/03 10:56:24;;;;;;;23.30;21.70;;;;;;;;;;5095418;28;20222;-79
2023/01/03 10:59:10;;;;;;;24.10;22.50;;;;;;;;;;5095307;28;20210;-80
2023/01/03 11:01:37;;;;;;;25.85;24.13;;;;;;;;;;5095428;28;20459;-79
2023/01/03 11:04:09;;;;;;;23.55;21.95;;;;;;;;;;5094370;28;20210;-80
2023/01/03 11:06:36;;;;;;;25.50;23.50;;;;;;;;;;5095449;28;20277;-79
2023/01/03 11:09:04;;;;;;;23.77;21.90;;;;;;;;;;5096090;28;20418;-80
2023/01/03 11:11:33;;;;;;;24.57;22.60;;;;;;;;;;5095513;28;20430;-79
2023/01/03 11:14:16;;;;;;;24.20;22.63;;;;;;;;;;5094728;28;20448;-79
2023/01/03 11:16:43;;;;;;;24.00;22.50;;;;;;;;;;5094849;28;20871;-79
2023/01/03 11:19:18;;;;;;;23.77;22.00;;;;;;;;;;5095820;28;20452;-80
2023/01/03 11:21:48;;;;;;;25.05;22.90;;;;;;;;;;5099402;28;20426;-80
2023/01/03 11:24:22;;;;;;;25.10;23.23;;;;;;;;;;5098893;28;20789;-80
2023/01/03 11:26:50;;;;;;;25.47;23.60;;;;;;;;;;5099561;28;20433;-80
2023/01/03 11:29:25;;;;;;;24.57;22.80;;;;;;;;;;5099534;28;20448;-80
2023/01/03 11:31:55;;;;;;;24.10;22.50;;;;;;;;;;5099036;28;20414;-80
2023/01/03 11:34:33;;;;;;;24.93;23.27;;;;;;;;;;5098197;28;20414;-80
2023/01/03 11:37:03;;;;;;;23.33;21.80;;;;;;;;;;5098004;28;20459;-80
2023/01/03 11:39:36;;;;;;;23.10;21.60;;;;;;;;;;5099361;28;20418;-80
2023/01/03 11:42:13;;;;;;;24.07;22.00;;;;;;;;;;5098545;28;20485;-80
2023/01/03 11:44:57;;;;;;;24.60;22.40;;;;;;;;;;5097370;28;20939;-79
2023/01/03 11:47:28;;;;;;;23.80;22.27;;;;;;;;;;5098268;28;20472;-80
2023/01/03 11:50:02;;;;;;;23.70;21.90;;;;;;;;;;5098457;28;20484;-80
2023/01/03 11:52:30;;;;;;;22.80;21.40;;;;;;;;;;5099285;28;20438;-79
2023/01/03 11:55:12;;;;;;;24.73;22.83;;;;;;;;;;5098593;28;20836;-79
2023/01/03 11:57:44;;;;;;;24.00;22.40;;;;;;;;;;5098833;28;20465;-80
2023/01/03 12:00:16;;;;;;;22.70;21.40;;;;;;;;;;5099083;28;20470;-80
2023/01/03 12:02:53;;;;;;;22.93;21.40;;;;;;;;;;5099004;28;20412;-79
2023/01/03 12:05:29;;;;;;;23.17;21.67;;;;;;;;;;5098025;28;20444;-80
2023/01/03 12:08:00;;;;;;;23.23;21.70;;;;;;;;;;5098077;28;20415;-80
2023/01/03 12:10:32;;;;;;;28.57;26.40;;;;;;;;;;5098045;28;20432;-80
2023/01/03 12:13:07;;;;;;;22.93;21.43;;;;;;;;;;5096924;28;20469;-80
2023/01/03 12:15:41;;;;;;;22.80;21.20;;;;;;;;;;5099191;28;20403;-80
2023/01/03 12:18:14;;;;;;;25.17;23.10;;;;;;;;;;5098804;28;20493;-80
2023/01/03 12:20:44;;;;;;;22.83;21.20;;;;;;;;;;5098331;28;20943;-80
2023/01/03 12:23:14;;;;;;;23.60;21.80;;;;;;;;;;5097879;28;20497;-80
2023/01/03 12:25:43;;;;;;;22.00;20.60;;;;;;;;;;5098408;28;20476;-81
2023/01/03 12:28:13;;;;;;;21.30;19.90;;;;;;;;;;5097901;28;20453;-80
2023/01/03 12:30:43;;;;;;;21.20;19.90;;;;;;;;;;5098366;28;20387;-80
2023/01/03 12:33:17;;;;;;;22.80;21.30;;;;;;;;;;5097050;28;20478;-80
2023/01/03 12:35:47;;;;;;;21.80;20.30;;;;;;;;;;5097565;28;20497;-81
2023/01/03 12:38:14;;;;;;;21.47;20.17;;;;;;;;;;5099248;28;20448;-81
2023/01/03 12:40:44;;;;;;;20.50;19.20;;;;;;;;;;5097127;28;20432;-81
2023/01/03 12:43:12;;;;;;;21.30;20.10;;;;;;;;;;5096235;28;20436;-81
2023/01/03 12:45:45;;;;;;;20.70;19.10;;;;;;;;;;5096923;28;20495;-80
2023/01/03 12:48:17;;;;;;;21.20;19.87;;;;;;;;;;5096999;28;20437;-81
2023/01/03 12:50:45;;;;;;;19.97;18.77;;;;;;;;;;5097088;28;20404;-80
2023/01/03 12:53:17;;;;;;;21.03;19.73;;;;;;;;;;5095933;28;20486;-81
2023/01/03 12:55:50;;;;;;;19.93;18.60;;;;;;;;;;5096458;28;20928;-81
2023/01/03 12:58:22;;;;;;;20.60;19.10;;;;;;;;;;5096860;28;20491;-81
2023/01/03 13:00:57;;;;;;;20.13;19.03;;;;;;;;;;5096773;28;20474;-80
2023/01/03 13:03:27;;;;;;;19.87;18.77;;;;;;;;;;5097082;28;20810;-80
2023/01/03 13:05:56;;;;;;;19.13;18.13;;;;;;;;;;5096503;28;20470;-81
2023/01/03 13:08:29;;;;;;;20.10;18.87;;;;;;;;;;5098213;28;20408;-82
2023/01/03 13:10:59;;;;;;;19.47;18.30;;;;;;;;;;5099837;28;20410;-82
2023/01/03 13:13:26;;;;;;;19.33;18.23;;;;;;;;;;5096384;28;20469;-81
2023/01/03 13:15:53;;;;;;;19.90;18.80;;;;;;;;;;5096016;28;20435;-81
2023/01/03 13:18:32;;;;;;;21.20;19.90;;;;;;;;;;5096836;28;20800;-81
2023/01/03 13:20:59;;;;;;;20.73;19.53;;;;;;;;;;5096928;28;20504;-80
2023/01/03 13:23:31;;;;;;;19.70;18.60;;;;;;;;;;5096484;28;20511;-82
2023/01/03 13:26:18;;;;;;;19.77;18.67;;;;;;;;;;5096670;28;20466;-82
2023/01/03 13:28:46;;;;;;;19.70;18.60;;;;;;;;;;5098860;28;20974;-81
2023/01/03 13:31:34;;;;;;;21.13;19.80;;;;;;;;;;5098101;28;20436;-80
2023/01/03 13:34:14;;;;;;;19.10;18.20;;;;;;;;;;5096209;28;20444;-81
2023/01/03 13:37:00;;;;;;;20.90;19.40;;;;;;;;;;5096053;28;20464;-82
2023/01/03 13:39:38;;;;;;;21.00;19.47;;;;;;;;;;5097103;28;20427;-81
2023/01/03 13:42:05;;;;;;;20.00;18.90;;;;;;;;;;5095937;28;20484;-81
2023/01/03 13:44:32;;;;;;;21.53;20.20;;;;;;;;;;5096171;28;20457;-81
2023/01/03 13:46:59;;;;;;;20.63;19.43;;;;;;;;;;5095737;28;20454;-81
2023/01/03 13:49:28;;;;;;;19.60;18.53;;;;;;;;;;5096821;28;20976;-81
2023/01/03 13:51:56;;;;;;;20.67;19.50;;;;;;;;;;5098024;28;20448;-83
2023/01/03 13:54:28;;;;;;;19.63;18.53;;;;;;;;;;5096654;28;20456;-82
2023/01/03 13:57:01;;;;;;;20.53;19.50;;;;;;;;;;5096405;28;20465;-80
2023/01/03 13:59:31;;;;;;;21.23;19.87;;;;;;;;;;5103029;28;20477;-87
2023/01/03 14:02:08;;;;;;;21.63;20.43;;;;;;;;;;5097195;28;20487;-80
2023/01/03 14:04:52;;;;;;;20.90;19.70;;;;;;;;;;5096503;28;20403;-78
2023/01/03 14:07:44;;;;;;;21.30;19.90;;;;;;;;;;5097071;28;20587;-80
2023/01/03 14:10:28;;;;;;;21.30;20.10;;;;;;;;;;5096743;28;20442;-79
2023/01/03 14:13:10;;;;;;;20.67;19.37;;;;;;;;;;5098186;28;20450;-79
2023/01/03 14:15:37;;;;;;;20.50;19.30;;;;;;;;;;5099277;28;20451;-80
2023/01/03 14:18:12;;;;;;;19.40;18.40;;;;;;;;;;5098736;28;20422;-80
2023/01/03 14:20:43;;;;;;;19.80;18.70;;;;;;;;;;5098958;28;20464;-78
2023/01/03 14:23:12;;;;;;;20.07;18.97;;;;;;;;;;5096363;28;20437;-78
2023/01/03 14:25:40;;;;;;;20.90;19.70;;;;;;;;;;5097075;28;20496;-78
2023/01/03 14:28:18;;;;;;;20.97;19.57;;;;;;;;;;5100826;28;20441;-78
2023/01/03 14:30:45;;;;;;;24.43;22.87;;;;;;;;;;5095424;28;20441;-78
2023/01/03 14:33:17;;;;;;;23.77;21.93;;;;;;;;;;5097912;28;20470;-80
2023/01/03 14:35:46;;;;;;;24.00;22.40;;;;;;;;;;5099809;28;20447;-77
2023/01/03 14:38:23;;;;;;;23.40;21.30;;;;;;;;;;5100547;28;20780;-77
2023/01/03 14:40:50;;;;;;;22.10;20.77;;;;;;;;;;5101963;28;20436;-79
2023/01/03 14:43:17;;;;;;;22.07;20.87;;;;;;;;;;5099327;28;20448;-79
2023/01/03 14:45:44;;;;;;;22.60;21.30;;;;;;;;;;5099840;28;20458;-79
2023/01/03 14:48:17;;;;;;;24.17;22.67;;;;;;;;;;5100574;28;20395;-81
2023/01/03 14:50:45;;;;;;;25.43;23.67;;;;;;;;;;5096950;28;20453;-80
2023/01/03 14:53:12;;;;;;;24.00;22.13;;;;;;;;;;5097265;28;20427;-80
2023/01/03 14:55:39;;;;;;;25.10;23.40;;;;;;;;;;5098579;28;20505;-80
2023/01/03 14:58:20;;;;;;;24.43;22.53;;;;;;;;;;5102048;28;20508;-80
2023/01/03 15:00:47;;;;;;;26.30;24.30;;;;;;;;;;5102857;28;20501;-80
2023/01/03 15:03:14;;;;;;;25.67;23.80;;;;;;;;;;5102296;28;20419;-79
2023/01/03 15:05:42;;;;;;;23.83;22.33;;;;;;;;;;5101018;28;20858;-80
2023/01/03 15:08:18;;;;;;;27.47;25.20;;;;;;;;;;5101944;28;20466;-80
2023/01/03 15:10:48;;;;;;;29.40;27.10;;;;;;;;;;5103902;28;20436;-80
2023/01/03 15:13:17;;;;;;;23.00;21.50;;;;;;;;;;5102268;28;20399;-80
2023/01/03 15:15:44;;;;;;;24.23;22.30;;;;;;;;;;5102225;28;20459;-79
2023/01/03 15:18:12;;;;;;;21.97;20.57;;;;;;;;;;5102557;28;20508;-80
2023/01/03 15:20:40;;;;;;;23.77;22.27;;;;;;;;;;5102026;28;20433;-80
2023/01/03 15:23:08;;;;;;;23.27;21.87;;;;;;;;;;5100576;28;20445;-80
2023/01/03 15:25:39;;;;;;;22.50;21.20;;;;;;;;;;5102314;28;20404;-80
2023/01/03 15:28:14;;;;;;;22.40;21.00;;;;;;;;;;5100082;28;20436;-81
2023/01/03 15:30:48;;;;;;;22.60;21.30;;;;;;;;;;5099865;28;20504;-80
2023/01/03 15:33:23;;;;;;;22.00;20.70;;;;;;;;;;5099693;28;20518;-80
2023/01/03 15:35:51;;;;;;;22.33;20.67;;;;;;;;;;5098767;28;20958;-78
2023/01/03 15:38:19;;;;;;;21.07;19.87;;;;;;;;;;5098160;28;20442;-78